Covington, GA (30016)

5:27 PM EDT on July 07, 2015 (GMT -0400)
Rocky Plains Weather Station | | Change Station
CLOSE
Current Station
Personal Weather Station
Location: Covington, GA
Elevation: 705 ft
Nearby Weather Stations

Elev 705 ft 33.50 °N, 83.91 °W | Updated 3 seconds ago

Partly Cloudy
Partly Cloudy
91.8 °F
Feels Like 87 °F
N
1.3
Wind Variable Wind from WNW
Gusts 2.5 mph

Today
High -- | Low -- °F
--% Chance of Precip.
Yesterday
High -- | Low -- °F
Precip. -- in
6:32 AM 8:49 PM
Waning Gibbous, 61% visible
Pressure 30.14 in
Visibility 10.0 miles
Clouds Scattered Clouds 4900 ft
Scattered Clouds 6000 ft
Heat Index 87 °F
Dew Point 32 °F
Humidity 12%
Rainfall 0.00 in
Snow Depth Not available.
UV 5 out of 12
Pollen 3.40 out of 12
Air Quality Not available.
Flu Activity Not available.
METAR K6A2 072115Z AUTO 32007KT 10SM SCT049 SCT060 31/20 A3014 RMK AO2

More Conditions Fewer Conditions

Pressure 30.14 in
Visibility 10.0 miles
Clouds Scattered Clouds 4900 ft
Scattered Clouds 6000 ft
Heat Index 87 °F
Dew Point 32 °F
Humidity 12%
Rainfall 0.00 in
Snow Depth Not available.
UV 5 out of 12
Pollen 3.40 out of 12
Air Quality Not available.
Flu Activity Not available.
METAR K6A2 072115Z AUTO 32007KT 10SM SCT049 SCT060 31/20 A3014 RMK AO2

More Conditions Fewer Conditions

10-Day Weather Forecast

×

Almanac

Astronomy

Jul. 07, 2015 Rise Set
Actual Time
Civil Twilight
Nautical Twilight
Astronomical Twilight
Moon
Length of Visible Light
Length of Day
Tomorrow will be .
, % of the Moon is Illuminated

Today's Extremes

State Highs State Lows

Community

WunderPhotos

Upload Photos

1,835,923 photos uploaded!

WunderBlogs® & News

Nearby

Air Quality

  Air Quality AQ Index Pollutant
Not available.

Snow Depth

Station Depth Elevation

Earthquake Activity

City Distance Mag. Time & Date
Minimum magnitude displayed is 2.5.

Coastal Water Temperatures

Place Temperature

Stations

Nearby Weather Stations

Station Location Temp. Windchill Dew Point Humidity Wind Precip. Elev Updated Type